Time;durP1;ratioP1;P1;durP2;ratioP2;P2;SDS_P1;SDS_P2;PMS_P1;PMS_P2;Temp;Humidity;BMP_temperature;BMP_pressure;BME280_temperature;BME280_humidity;BME280_pressure;Samples;Min_cycle;Max_cycle;Signal;HPM_P1;HPM_P2
2021/05/13 00:00:12;;;;;;;9.73;4.93;;;14.30;99.90;;;;;;5111711;28;20453;-68
2021/05/13 00:02:39;;;;;;;6.77;4.47;;;14.30;99.90;;;;;;5111507;28;20453;-67
2021/05/13 00:05:06;;;;;;;11.27;5.20;;;14.30;99.90;;;;;;5111479;28;20456;-69
2021/05/13 00:07:34;;;;;;;6.77;5.50;;;14.30;99.90;;;;;;5110896;28;20474;-69
2021/05/13 00:10:00;;;;;;;6.30;5.40;;;14.30;99.90;;;;;;5111143;28;20445;-68
2021/05/13 00:12:37;;;;;;;6.00;5.30;;;14.30;99.90;;;;;;5112976;28;20453;-69
2021/05/13 00:15:07;;;;;;;5.73;4.80;;;14.30;99.90;;;;;;5112714;28;20433;-70
2021/05/13 00:17:33;;;;;;;7.30;5.53;;;14.30;99.90;;;;;;5112737;28;20471;-69
2021/05/13 00:19:59;;;;;;;11.43;5.70;;;14.30;99.90;;;;;;5111880;28;20445;-68
2021/05/13 00:22:26;;;;;;;8.80;5.93;;;14.30;99.90;;;;;;5111749;28;20442;-67
2021/05/13 00:24:59;;;;;;;8.20;6.30;;;14.30;99.90;;;;;;5111985;28;20468;-68
2021/05/13 00:27:25;;;;;;;8.70;5.63;;;14.30;99.90;;;;;;5112130;28;20438;-68
2021/05/13 00:29:51;;;;;;;6.80;6.10;;;14.30;99.90;;;;;;5112178;28;20531;-68
2021/05/13 00:32:18;;;;;;;10.67;7.20;;;14.20;99.90;;;;;;5111783;28;20496;-68
2021/05/13 00:34:44;;;;;;;10.50;6.70;;;14.20;99.90;;;;;;5111978;28;20449;-68
2021/05/13 00:37:11;;;;;;;6.00;5.37;;;14.10;99.90;;;;;;5111878;28;20824;-68
2021/05/13 00:39:37;;;;;;;5.87;5.07;;;14.10;99.90;;;;;;5112898;28;20545;-68
2021/05/13 00:42:04;;;;;;;9.13;5.40;;;14.00;99.90;;;;;;5112494;28;20453;-67
2021/05/13 00:44:34;;;;;;;12.27;6.20;;;14.00;99.90;;;;;;5112577;28;20521;-67
2021/05/13 00:47:00;;;;;;;7.37;4.33;;;13.90;99.90;;;;;;5112713;28;20446;-67
2021/05/13 00:49:26;;;;;;;10.20;5.40;;;13.80;99.90;;;;;;5112395;28;20533;-68
2021/05/13 00:51:53;;;;;;;7.83;5.60;;;13.80;99.90;;;;;;5111889;28;20445;-68
2021/05/13 00:54:20;;;;;;;6.30;4.97;;;13.70;99.90;;;;;;5112612;28;20457;-68
2021/05/13 00:56:51;;;;;;;7.43;5.27;;;13.70;99.90;;;;;;5111100;28;20473;-69
2021/05/13 00:59:22;;;;;;;6.67;4.93;;;13.60;99.90;;;;;;5110826;28;20445;-69
2021/05/13 01:01:49;;;;;;;9.30;5.20;;;13.50;99.90;;;;;;5110506;28;20449;-68
2021/05/13 01:04:17;;;;;;;5.97;5.23;;;13.40;99.90;;;;;;5110684;28;20459;-68
2021/05/13 01:06:43;;;;;;;8.57;4.93;;;13.40;99.90;;;;;;5111386;28;20464;-68
2021/05/13 01:09:11;;;;;;;12.47;4.83;;;13.30;99.90;;;;;;5112987;28;20442;-68
2021/05/13 01:11:40;;;;;;;5.60;4.70;;;13.30;99.90;;;;;;5112261;28;20460;-68
2021/05/13 01:14:15;;;;;;;8.03;5.40;;;13.20;99.90;;;;;;5112442;28;20902;-68
2021/05/13 01:16:57;;;;;;;10.63;5.53;;;13.20;99.90;;;;;;5113072;28;20828;-68
2021/05/13 01:19:23;;;;;;;5.50;4.67;;;13.20;99.90;;;;;;5112373;28;20450;-68
2021/05/13 01:21:50;;;;;;;9.00;4.70;;;13.10;99.90;;;;;;5113654;28;20460;-68
2021/05/13 01:24:18;;;;;;;9.53;4.87;;;13.00;99.90;;;;;;5112976;28;20464;-68
2021/05/13 01:26:46;;;;;;;7.30;4.80;;;13.00;99.90;;;;;;5112264;28;20446;-68
2021/05/13 01:29:13;;;;;;;8.10;4.47;;;13.00;99.90;;;;;;5112159;28;20454;-68
2021/05/13 01:31:39;;;;;;;5.10;4.60;;;12.90;99.90;;;;;;5111734;28;20874;-68
2021/05/13 01:34:06;;;;;;;11.77;6.40;;;12.90;99.90;;;;;;5111609;28;20729;-68
2021/05/13 01:36:33;;;;;;;8.20;5.97;;;12.90;99.90;;;;;;5111966;28;20473;-68
2021/05/13 01:39:00;;;;;;;9.33;6.03;;;12.90;99.90;;;;;;5112147;28;20465;-68
2021/05/13 01:41:27;;;;;;;9.10;6.47;;;12.90;99.90;;;;;;5112108;28;20457;-68
2021/05/13 01:43:55;;;;;;;7.60;6.27;;;12.90;99.90;;;;;;5112017;28;20450;-68
2021/05/13 01:46:21;;;;;;;9.20;7.70;;;12.90;99.90;;;;;;5111926;28;20464;-68
2021/05/13 01:48:48;;;;;;;11.30;6.80;;;12.80;99.90;;;;;;5112087;28;20453;-68
2021/05/13 01:51:14;;;;;;;7.60;6.47;;;12.80;99.90;;;;;;5111412;28;20468;-68
2021/05/13 01:53:41;;;;;;;14.20;6.33;;;12.90;99.90;;;;;;5111504;28;20478;-68
2021/05/13 01:56:09;;;;;;;8.83;5.60;;;12.90;99.90;;;;;;5112002;28;20473;-68
2021/05/13 01:58:36;;;;;;;7.80;5.93;;;12.90;99.90;;;;;;5111738;28;20457;-68
2021/05/13 02:01:05;;;;;;;10.17;5.87;;;12.90;99.90;;;;;;5112221;28;20458;-68
2021/05/13 02:03:33;;;;;;;5.57;5.07;;;12.90;99.90;;;;;;5111728;28;20453;-68
2021/05/13 02:05:59;;;;;;;9.47;5.50;;;12.90;99.90;;;;;;5111509;28;20761;-68
2021/05/13 02:08:27;;;;;;;10.90;5.30;;;12.80;99.90;;;;;;5111109;28;20468;-68
2021/05/13 02:10:53;;;;;;;14.10;6.07;;;12.80;99.90;;;;;;5111249;28;20469;-68
2021/05/13 02:13:21;;;;;;;8.80;5.70;;;12.80;99.90;;;;;;5110810;28;20461;-69
2021/05/13 02:15:47;;;;;;;9.00;5.73;;;12.80;99.90;;;;;;5111242;28;20492;-68
2021/05/13 02:18:13;;;;;;;6.10;5.43;;;12.90;99.90;;;;;;5110716;28;20460;-68
2021/05/13 02:20:39;;;;;;;8.17;5.47;;;12.90;99.90;;;;;;5111469;28;20505;-68
2021/05/13 02:23:06;;;;;;;12.70;5.80;;;12.80;99.90;;;;;;5110251;28;20461;-68
2021/05/13 02:25:33;;;;;;;9.73;5.70;;;12.80;99.90;;;;;;5110748;28;20458;-68
2021/05/13 02:27:59;;;;;;;6.67;5.30;;;12.80;99.90;;;;;;5110894;28;20449;-69
2021/05/13 02:30:26;;;;;;;9.90;5.33;;;12.70;99.90;;;;;;5111114;28;20482;-68
2021/05/13 02:32:53;;;;;;;6.00;4.90;;;12.70;99.90;;;;;;5111496;28;20446;-68
2021/05/13 02:35:20;;;;;;;7.70;5.80;;;12.70;99.90;;;;;;5111564;28;20479;-69
2021/05/13 02:37:46;;;;;;;6.40;5.23;;;12.60;99.90;;;;;;5110979;28;20535;-69
2021/05/13 02:40:17;;;;;;;7.70;6.70;;;12.60;99.90;;;;;;5110775;28;20441;-68
2021/05/13 02:42:43;;;;;;;8.10;5.70;;;12.60;99.90;;;;;;5110871;28;20769;-68
2021/05/13 02:45:11;;;;;;;7.87;5.97;;;12.60;99.90;;;;;;5107822;28;20457;-68
2021/05/13 02:47:38;;;;;;;11.13;6.17;;;12.60;99.90;;;;;;5107997;28;20453;-68
2021/05/13 02:50:07;;;;;;;9.20;7.17;;;12.60;99.90;;;;;;5109551;28;20768;-68
2021/05/13 02:52:33;;;;;;;10.30;6.50;;;12.60;99.90;;;;;;5109893;28;20512;-68
2021/05/13 02:55:00;;;;;;;13.50;6.97;;;12.60;99.90;;;;;;5110159;28;20460;-68
2021/05/13 02:57:26;;;;;;;11.40;8.07;;;12.60;99.90;;;;;;5110395;28;20511;-68
2021/05/13 02:59:57;;;;;;;7.57;6.50;;;12.60;99.90;;;;;;5109961;28;20474;-68
2021/05/13 03:02:23;;;;;;;9.80;7.50;;;12.70;99.90;;;;;;5110322;28;20480;-68
2021/05/13 03:04:50;;;;;;;13.53;7.10;;;12.70;99.90;;;;;;5110567;28;20453;-68
2021/05/13 03:07:17;;;;;;;9.53;8.03;;;12.70;99.90;;;;;;5109111;28;20513;-68
2021/05/13 03:09:45;;;;;;;14.27;7.27;;;12.70;99.90;;;;;;5108961;28;20485;-68
2021/05/13 03:12:15;;;;;;;9.90;6.50;;;12.70;99.90;;;;;;5108670;28;20453;-68
2021/05/13 03:14:43;;;;;;;7.60;6.13;;;12.70;99.90;;;;;;5110652;28;20454;-68
2021/05/13 03:17:10;;;;;;;12.30;7.27;;;12.70;99.90;;;;;;5109579;28;20854;-68
2021/05/13 03:19:41;;;;;;;12.20;6.20;;;12.70;99.90;;;;;;5109821;28;20527;-69
2021/05/13 03:22:12;;;;;;;11.53;6.40;;;12.70;99.90;;;;;;5110538;28;20466;-68
2021/05/13 03:24:44;;;;;;;9.60;6.33;;;12.70;99.90;;;;;;5109786;28;20502;-68
2021/05/13 03:27:13;;;;;;;9.47;6.87;;;12.70;99.90;;;;;;5109859;28;20901;-68
2021/05/13 03:29:39;;;;;;;10.50;6.17;;;12.70;99.90;;;;;;5109656;28;20453;-68
2021/05/13 03:32:06;;;;;;;11.30;6.23;;;12.70;99.90;;;;;;5109813;28;20492;-68
2021/05/13 03:34:32;;;;;;;9.80;6.53;;;12.70;99.90;;;;;;5109049;28;20450;-68
2021/05/13 03:37:02;;;;;;;8.50;5.80;;;12.70;99.90;;;;;;5109040;28;20473;-68
2021/05/13 03:39:29;;;;;;;7.13;5.83;;;12.70;99.90;;;;;;5109590;28;20457;-68
2021/05/13 03:41:56;;;;;;;7.30;5.93;;;12.70;99.90;;;;;;5109243;28;20457;-68
2021/05/13 03:44:22;;;;;;;11.93;6.10;;;12.70;99.90;;;;;;5109231;28;20828;-68
2021/05/13 03:46:48;;;;;;;9.97;5.77;;;12.60;99.90;;;;;;5107682;28;20484;-68
2021/05/13 03:49:14;;;;;;;6.93;5.00;;;12.70;99.90;;;;;;5107338;28;20904;-68
2021/05/13 03:51:41;;;;;;;8.80;5.53;;;12.70;99.90;;;;;;5107697;28;20464;-68
2021/05/13 03:54:07;;;;;;;10.70;5.80;;;12.70;99.90;;;;;;5107222;28;20469;-68
2021/05/13 03:56:34;;;;;;;8.90;5.87;;;12.70;99.90;;;;;;5106839;28;20559;-67
2021/05/13 03:59:05;;;;;;;7.47;6.17;;;12.70;99.90;;;;;;5107696;28;20986;-69
2021/05/13 04:01:45;;;;;;;9.40;6.00;;;12.70;99.90;;;;;;5108755;28;20438;-68
2021/05/13 04:04:15;;;;;;;13.13;6.40;;;12.70;99.90;;;;;;5107629;28;20457;-67
2021/05/13 04:06:41;;;;;;;7.73;5.70;;;12.70;99.90;;;;;;5107710;28;20463;-67
2021/05/13 04:09:08;;;;;;;9.00;6.00;;;12.70;99.90;;;;;;5109294;28;20457;-68
2021/05/13 04:11:36;;;;;;;10.23;5.50;;;12.80;99.90;;;;;;5110636;28;20495;-67
2021/05/13 04:14:03;;;;;;;10.80;6.50;;;12.70;99.90;;;;;;5109801;28;20461;-67
2021/05/13 04:16:32;;;;;;;11.40;5.80;;;12.70;99.90;;;;;;5108674;28;20476;-68
2021/05/13 04:18:58;;;;;;;9.30;6.20;;;12.70;99.90;;;;;;5109924;28;20483;-68
2021/05/13 04:21:28;;;;;;;9.63;6.33;;;12.70;99.90;;;;;;5108988;28;20787;-68
2021/05/13 04:23:54;;;;;;;10.20;6.43;;;12.80;99.90;;;;;;5109437;28;20456;-68
2021/05/13 04:26:20;;;;;;;13.33;6.10;;;12.80;99.90;;;;;;5109139;28;20885;-68
2021/05/13 04:28:48;;;;;;;7.10;5.77;;;12.80;99.90;;;;;;5108814;28;20449;-67
2021/05/13 04:31:14;;;;;;;9.60;7.10;;;12.80;99.90;;;;;;5108504;28;20481;-67
2021/05/13 04:33:40;;;;;;;7.23;6.00;;;12.90;99.90;;;;;;5108937;28;20524;-67
2021/05/13 04:36:07;;;;;;;7.40;6.07;;;12.90;99.90;;;;;;5107866;28;20457;-67
2021/05/13 04:38:34;;;;;;;7.57;5.93;;;12.90;99.90;;;;;;5108535;28;20483;-69
2021/05/13 04:41:00;;;;;;;11.90;5.83;;;13.00;99.90;;;;;;5109029;28;20901;-67
2021/05/13 04:43:32;;;;;;;8.20;5.77;;;12.90;99.90;;;;;;5112114;28;20747;-68
2021/05/13 04:46:03;;;;;;;9.67;6.23;;;12.90;99.90;;;;;;5111854;28;20878;-68
2021/05/13 04:48:41;;;;;;;10.37;6.20;;;13.00;99.90;;;;;;5110606;28;20453;-67
2021/05/13 04:51:07;;;;;;;6.30;5.37;;;13.00;99.90;;;;;;5111001;28;20445;-68
2021/05/13 04:53:36;;;;;;;9.17;5.90;;;13.00;99.90;;;;;;5109949;28;20542;-67
2021/05/13 04:56:02;;;;;;;6.70;5.67;;;13.00;99.90;;;;;;5110593;28;20927;-67
2021/05/13 04:58:29;;;;;;;10.30;6.20;;;13.00;99.90;;;;;;5110280;28;21025;-69
2021/05/13 05:00:57;;;;;;;7.73;5.50;;;13.00;99.90;;;;;;5110394;28;20453;-68
2021/05/13 05:03:24;;;;;;;7.57;6.27;;;13.00;99.90;;;;;;5110651;28;20446;-68
2021/05/13 05:05:50;;;;;;;6.80;5.50;;;13.00;99.90;;;;;;5110831;28;20445;-68
2021/05/13 05:08:16;;;;;;;7.90;6.00;;;13.00;99.90;;;;;;5111134;28;20478;-68
2021/05/13 05:10:43;;;;;;;9.43;6.20;;;13.10;99.90;;;;;;5110668;28;20457;-68
2021/05/13 05:13:09;;;;;;;9.27;6.17;;;13.00;99.90;;;;;;5110771;28;20552;-68
2021/05/13 05:15:35;;;;;;;10.90;6.10;;;13.00;99.90;;;;;;5111799;28;20460;-68
2021/05/13 05:18:01;;;;;;;7.90;5.90;;;13.00;99.90;;;;;;5111752;28;20481;-68
2021/05/13 05:20:29;;;;;;;6.40;5.73;;;13.00;99.90;;;;;;5111314;28;20445;-68
2021/05/13 05:22:55;;;;;;;10.80;6.10;;;13.00;99.90;;;;;;5110673;28;20515;-68
2021/05/13 05:25:21;;;;;;;9.40;5.90;;;13.00;99.90;;;;;;5111231;28;20466;-69
2021/05/13 05:27:48;;;;;;;8.50;6.30;;;13.00;99.90;;;;;;5110908;28;20445;-68
2021/05/13 05:30:15;;;;;;;6.43;5.67;;;13.00;99.90;;;;;;5109968;28;20472;-68
2021/05/13 05:32:42;;;;;;;8.27;5.83;;;13.00;99.90;;;;;;5110342;28;20461;-68
2021/05/13 05:35:11;;;;;;;7.10;5.60;;;13.00;99.90;;;;;;5110093;28;20458;-68
2021/05/13 05:37:41;;;;;;;6.87;5.90;;;13.10;99.90;;;;;;5108967;28;20481;-68
2021/05/13 05:40:12;;;;;;;6.33;5.67;;;13.10;99.90;;;;;;5108885;28;20454;-68
2021/05/13 05:42:39;;;;;;;9.33;5.70;;;13.10;99.90;;;;;;5109618;28;20514;-68
2021/05/13 05:45:06;;;;;;;7.07;5.93;;;13.10;99.90;;;;;;5109633;28;20513;-68
2021/05/13 05:47:33;;;;;;;6.90;5.33;;;13.10;99.90;;;;;;5102490;28;20452;-67
2021/05/13 05:49:59;;;;;;;7.40;5.60;;;13.10;99.90;;;;;;5100240;28;20970;-68
2021/05/13 05:52:25;;;;;;;8.37;6.07;;;13.20;99.90;;;;;;5100621;28;20460;-66
2021/05/13 05:54:54;;;;;;;6.50;5.30;;;13.20;99.90;;;;;;5100896;28;20467;-66
2021/05/13 05:57:21;;;;;;;7.20;5.63;;;13.20;99.90;;;;;;5100354;28;20502;-67
2021/05/13 05:59:47;;;;;;;7.40;5.53;;;13.20;99.90;;;;;;5102957;28;20808;-68
2021/05/13 06:02:13;;;;;;;10.23;6.20;;;13.20;99.90;;;;;;5101559;28;20453;-68
2021/05/13 06:04:39;;;;;;;7.50;5.33;;;13.30;99.90;;;;;;5104676;28;20449;-67
2021/05/13 06:07:06;;;;;;;6.60;5.90;;;13.30;99.90;;;;;;5105468;28;20454;-67
2021/05/13 06:09:32;;;;;;;8.37;4.90;;;13.30;99.90;;;;;;5104820;28;20924;-67
2021/05/13 06:12:00;;;;;;;7.13;5.67;;;13.30;99.90;;;;;;5109136;28;20457;-67
2021/05/13 06:14:28;;;;;;;6.53;4.90;;;13.30;99.90;;;;;;5103968;28;20463;-67
2021/05/13 06:16:54;;;;;;;5.77;5.17;;;13.30;99.90;;;;;;5101661;28;20478;-67
2021/05/13 06:19:20;;;;;;;5.67;4.40;;;13.30;99.90;;;;;;5102027;28;20767;-68
2021/05/13 06:21:46;;;;;;;5.47;4.17;;;13.30;99.90;;;;;;5103851;28;20461;-68
2021/05/13 06:24:13;;;;;;;7.90;5.10;;;13.30;99.90;;;;;;5102484;28;20510;-68
2021/05/13 06:26:39;;;;;;;7.10;4.60;;;13.30;99.90;;;;;;5103094;28;20468;-67
2021/05/13 06:29:08;;;;;;;5.47;4.77;;;13.30;99.90;;;;;;5101354;28;20457;-66
2021/05/13 06:31:35;;;;;;;4.30;3.90;;;13.30;99.90;;;;;;5099170;28;20481;-67
2021/05/13 06:34:01;;;;;;;7.90;4.70;;;13.30;99.90;;;;;;5099116;28;20454;-68
2021/05/13 06:36:27;;;;;;;5.80;4.87;;;13.40;99.90;;;;;;5097859;28;20466;-68
2021/05/13 06:38:54;;;;;;;7.60;5.30;;;13.40;99.90;;;;;;5098118;28;20457;-68
2021/05/13 06:41:20;;;;;;;7.13;5.20;;;13.40;99.90;;;;;;5097997;28;20465;-68
2021/05/13 06:43:46;;;;;;;7.40;5.10;;;13.30;99.90;;;;;;5097935;28;20457;-67
2021/05/13 06:46:13;;;;;;;6.00;5.40;;;13.30;99.90;;;;;;5098218;28;20457;-67
2021/05/13 06:48:40;;;;;;;6.67;5.57;;;13.30;99.90;;;;;;5097763;28;20533;-67
2021/05/13 06:51:06;;;;;;;8.80;5.30;;;13.30;99.90;;;;;;5097560;28;20480;-67
2021/05/13 06:53:32;;;;;;;9.93;5.60;;;13.30;99.90;;;;;;5096998;28;20905;-67
2021/05/13 06:55:59;;;;;;;8.83;6.00;;;13.30;99.90;;;;;;5097971;28;20457;-67
2021/05/13 06:58:25;;;;;;;7.63;6.10;;;13.30;99.90;;;;;;5097614;28;20848;-68
2021/05/13 07:00:51;;;;;;;5.67;5.17;;;13.30;99.90;;;;;;5097679;28;20461;-67
2021/05/13 07:03:19;;;;;;;6.00;5.40;;;13.30;99.90;;;;;;5097239;28;20468;-67
2021/05/13 07:05:45;;;;;;;9.07;6.00;;;13.30;99.90;;;;;;5097119;28;20513;-68
2021/05/13 07:08:11;;;;;;;7.70;6.40;;;13.30;99.90;;;;;;5096657;28;20485;-68
2021/05/13 07:10:39;;;;;;;6.43;5.80;;;13.30;99.90;;;;;;5096041;28;20461;-68
2021/05/13 07:13:08;;;;;;;9.20;6.53;;;13.20;99.90;;;;;;5096001;28;20913;-68
2021/05/13 07:15:34;;;;;;;7.50;6.70;;;13.20;99.90;;;;;;5095975;28;20454;-67
2021/05/13 07:18:01;;;;;;;10.77;7.03;;;13.20;99.90;;;;;;5095855;28;20473;-67
2021/05/13 07:20:30;;;;;;;7.30;6.00;;;13.10;99.90;;;;;;5095961;28;20457;-69
2021/05/13 07:22:59;;;;;;;10.20;7.37;;;13.10;99.90;;;;;;5097335;28;20468;-68
2021/05/13 07:25:28;;;;;;;9.23;7.13;;;13.10;99.90;;;;;;5096519;28;20465;-67
2021/05/13 07:27:55;;;;;;;8.60;7.63;;;13.10;99.90;;;;;;5095895;28;20782;-69
2021/05/13 07:30:21;;;;;;;8.20;6.90;;;13.10;99.90;;;;;;5095404;28;20453;-68
2021/05/13 07:32:48;;;;;;;8.37;6.73;;;13.10;99.90;;;;;;5095390;28;20921;-67
2021/05/13 07:35:17;;;;;;;7.73;6.73;;;13.10;99.90;;;;;;5095756;28;20770;-70
2021/05/13 07:37:44;;;;;;;8.47;6.87;;;13.10;99.90;;;;;;5095608;28;20542;-67
2021/05/13 07:40:12;;;;;;;7.17;6.43;;;13.10;99.90;;;;;;5095204;28;20790;-70
2021/05/13 07:42:38;;;;;;;7.40;5.73;;;13.10;99.90;;;;;;5095767;28;20453;-70
2021/05/13 07:45:09;;;;;;;7.27;6.57;;;13.20;99.90;;;;;;5095320;28;20789;-69
2021/05/13 07:47:38;;;;;;;7.93;5.90;;;13.10;99.90;;;;;;5095449;28;20433;-68
2021/05/13 07:50:06;;;;;;;8.17;6.70;;;13.10;99.90;;;;;;5095682;28;20480;-69
2021/05/13 07:52:33;;;;;;;9.47;7.03;;;13.10;99.90;;;;;;5096028;28;20461;-68
2021/05/13 07:55:00;;;;;;;7.43;6.70;;;13.10;99.90;;;;;;5095361;28;20454;-68
2021/05/13 07:57:26;;;;;;;7.20;6.20;;;13.10;99.90;;;;;;5095477;28;20488;-69
2021/05/13 07:59:53;;;;;;;10.50;7.00;;;13.00;99.90;;;;;;5095638;28;20467;-69
2021/05/13 08:02:19;;;;;;;7.90;6.77;;;13.00;99.90;;;;;;5096364;28;20938;-70
2021/05/13 08:04:45;;;;;;;10.30;6.90;;;13.00;99.90;;;;;;5100932;28;20454;-69
2021/05/13 08:07:12;;;;;;;7.50;6.37;;;12.90;99.90;;;;;;5100134;28;20460;-69
2021/05/13 08:09:38;;;;;;;9.10;7.90;;;12.90;99.90;;;;;;5100987;28;20453;-69
2021/05/13 08:12:06;;;;;;;9.30;6.80;;;12.90;99.90;;;;;;5100577;28;20507;-69
2021/05/13 08:14:32;;;;;;;10.13;7.83;;;12.90;99.90;;;;;;5099074;28;20487;-67
2021/05/13 08:16:59;;;;;;;8.80;7.70;;;12.90;99.90;;;;;;5102977;28;20949;-69
2021/05/13 08:19:25;;;;;;;10.10;7.80;;;12.90;99.90;;;;;;5103211;28;20764;-72
2021/05/13 08:21:51;;;;;;;8.70;7.67;;;12.90;99.90;;;;;;5102135;28;20456;-70
2021/05/13 08:24:18;;;;;;;10.70;8.37;;;12.90;99.90;;;;;;5101041;28;20537;-69
2021/05/13 08:26:44;;;;;;;8.40;7.13;;;12.90;99.90;;;;;;5100699;28;20531;-69
2021/05/13 08:29:11;;;;;;;7.93;7.17;;;12.90;99.90;;;;;;5100937;28;20453;-68
2021/05/13 08:31:37;;;;;;;9.67;7.47;;;12.90;99.90;;;;;;5099681;28;20480;-68
2021/05/13 08:34:03;;;;;;;8.80;7.57;;;12.80;99.90;;;;;;5099089;28;20522;-70
2021/05/13 08:36:30;;;;;;;8.50;7.13;;;12.80;99.90;;;;;;5099795;28;20778;-69
2021/05/13 08:38:56;;;;;;;9.03;7.30;;;12.70;99.90;;;;;;5099261;28;20449;-69
2021/05/13 08:41:27;;;;;;;9.70;7.07;;;12.70;99.90;;;;;;5099982;28;20952;-70
2021/05/13 08:43:54;;;;;;;8.17;6.77;;;12.60;99.90;;;;;;5101343;28;20882;-69
2021/05/13 08:46:21;;;;;;;11.07;8.10;;;12.60;99.90;;;;;;5105576;28;20449;-70
2021/05/13 08:48:49;;;;;;;11.13;7.90;;;12.60;99.90;;;;;;5100647;28;20457;-68
2021/05/13 08:51:17;;;;;;;8.27;6.73;;;12.60;99.90;;;;;;5101081;28;20460;-67
2021/05/13 08:53:48;;;;;;;8.93;6.57;;;12.50;99.90;;;;;;5101515;28;20486;-68
2021/05/13 08:56:14;;;;;;;8.40;7.30;;;12.50;99.90;;;;;;5101308;28;20484;-67
2021/05/13 08:58:41;;;;;;;9.07;7.37;;;12.50;99.90;;;;;;5101162;28;20786;-69
2021/05/13 09:01:12;;;;;;;8.07;6.60;;;12.40;99.90;;;;;;5100333;28;20496;-67
2021/05/13 09:03:41;;;;;;;7.70;7.00;;;12.40;99.90;;;;;;5100018;28;20507;-67
2021/05/13 09:06:08;;;;;;;7.53;6.73;;;12.30;99.90;;;;;;5100596;28;20457;-69
2021/05/13 09:08:35;;;;;;;8.03;6.70;;;12.30;99.90;;;;;;5099182;28;20464;-67
2021/05/13 09:11:11;;;;;;;8.33;6.73;;;12.30;99.90;;;;;;5098932;28;20515;-68
2021/05/13 09:13:38;;;;;;;7.87;6.47;;;12.30;99.90;;;;;;5099320;28;20467;-67
2021/05/13 09:16:29;;;;;;;9.43;7.50;;;12.30;99.90;;;;;;5098052;28;20487;-68
2021/05/13 09:18:57;;;;;;;5.80;5.13;;;12.30;99.90;;;;;;5098136;28;20449;-68
2021/05/13 09:21:23;;;;;;;10.33;6.33;;;12.30;99.90;;;;;;5098325;28;20758;-67
2021/05/13 09:23:50;;;;;;;7.97;5.93;;;12.30;99.90;;;;;;5098084;28;20465;-68
2021/05/13 09:26:18;;;;;;;9.00;6.90;;;12.30;99.90;;;;;;5100060;28;20453;-68
2021/05/13 09:28:46;;;;;;;7.70;5.90;;;12.30;99.90;;;;;;5112602;28;20445;-68
2021/05/13 09:31:35;;;;;;;8.20;5.87;;;12.30;99.90;;;;;;5113457;28;20491;-69
2021/05/13 09:34:06;;;;;;;8.20;5.30;;;12.20;99.90;;;;;;5113768;28;20448;-69
2021/05/13 09:36:33;;;;;;;6.17;5.43;;;12.20;99.90;;;;;;5114102;28;20775;-68
2021/05/13 09:39:00;;;;;;;8.23;5.37;;;12.20;99.90;;;;;;5115704;28;20458;-68
2021/05/13 09:41:36;;;;;;;6.83;5.63;;;12.30;99.90;;;;;;5114491;28;20457;-68
2021/05/13 09:44:32;;;;;;;8.30;5.60;;;12.20;99.90;;;;;;5114238;28;20471;-69
2021/05/13 09:47:12;;;;;;;8.87;7.00;;;12.20;99.90;;;;;;5111594;28;20444;-69
2021/05/13 09:49:53;;;;;;;9.60;6.50;;;12.20;99.90;;;;;;5108579;28;20438;-69
2021/05/13 09:52:47;;;;;;;7.77;6.10;;;12.20;99.90;;;;;;5107855;28;20870;-68
2021/05/13 09:55:19;;;;;;;8.20;6.50;;;12.20;99.90;;;;;;5107563;28;20441;-68
2021/05/13 09:57:57;;;;;;;8.03;7.17;;;12.20;99.90;;;;;;5107800;28;20525;-69
2021/05/13 10:00:43;;;;;;;11.47;7.43;;;12.20;99.90;;;;;;5099095;28;20446;-66
2021/05/13 10:03:12;;;;;;;10.00;7.43;;;12.20;99.90;;;;;;5097339;28;20444;-67
2021/05/13 10:05:42;;;;;;;9.60;7.80;;;12.10;99.90;;;;;;5097375;28;20481;-67
2021/05/13 10:08:09;;;;;;;9.00;7.57;;;12.10;99.90;;;;;;5096890;28;20449;-67
2021/05/13 10:10:37;;;;;;;12.50;9.13;;;12.20;99.90;;;;;;5097467;28;20518;-67
2021/05/13 10:13:05;;;;;;;11.63;9.40;;;12.20;99.90;;;;;;5097544;28;20460;-67
2021/05/13 10:15:31;;;;;;;11.03;8.73;;;12.30;99.90;;;;;;5098321;28;20554;-67
2021/05/13 10:18:01;;;;;;;12.17;8.90;;;12.30;99.90;;;;;;5097455;28;20473;-67
2021/05/13 10:20:32;;;;;;;11.30;8.60;;;12.30;99.90;;;;;;5104053;28;20445;-69
2021/05/13 10:22:59;;;;;;;11.43;7.90;;;12.40;99.90;;;;;;5107424;28;20471;-69
2021/05/13 10:25:28;;;;;;;9.67;7.80;;;12.40;99.90;;;;;;5107402;28;20453;-68
2021/05/13 10:27:57;;;;;;;9.60;7.77;;;12.40;99.90;;;;;;5107961;28;20453;-69
2021/05/13 10:30:25;;;;;;;10.27;7.33;;;12.50;99.90;;;;;;5108037;28;20464;-69
2021/05/13 10:33:18;;;;;;;8.23;6.93;;;12.50;99.90;;;;;;5108639;28;20434;-69
2021/05/13 10:36:05;;;;;;;8.63;7.00;;;12.60;99.90;;;;;;5107551;28;20510;-69
2021/05/13 10:39:06;;;;;;;8.97;7.43;;;12.70;99.90;;;;;;5107531;28;20500;-69
2021/05/13 10:41:35;;;;;;;7.40;6.40;;;12.80;99.90;;;;;;5095393;28;20552;-69
2021/05/13 10:44:38;;;;;;;7.20;6.50;;;12.80;99.90;;;;;;5108640;28;20457;-70
2021/05/13 10:47:07;;;;;;;7.10;5.90;;;12.80;99.90;;;;;;5108348;28;20553;-69
2021/05/13 10:49:45;;;;;;;8.43;6.30;;;12.90;99.90;;;;;;5108275;28;20533;-68
2021/05/13 10:52:41;;;;;;;7.13;5.60;;;12.90;99.90;;;;;;5107788;28;20433;-70
2021/05/13 10:55:40;;;;;;;7.00;5.60;;;13.00;99.90;;;;;;5105303;28;20516;-68
2021/05/13 10:58:51;;;;;;;5.30;4.70;;;13.10;99.90;;;;;;5106963;28;20473;-68
2021/05/13 11:01:44;;;;;;;6.30;4.53;;;13.20;99.90;;;;;;5107279;28;20823;-69
2021/05/13 11:04:34;;;;;;;6.47;5.50;;;13.30;99.90;;;;;;5107862;28;20441;-68
2021/05/13 11:07:03;;;;;;;5.50;4.80;;;13.30;99.90;;;;;;5106071;28;20524;-68
2021/05/13 11:09:57;;;;;;;4.67;4.27;;;13.30;99.90;;;;;;5107436;28;20461;-69
2021/05/13 11:12:25;;;;;;;6.40;4.30;;;13.20;99.90;;;;;;5106614;28;20477;-68
2021/05/13 11:15:12;;;;;;;5.77;4.43;;;13.10;99.90;;;;;;5107454;28;20458;-67
2021/05/13 11:18:04;;;;;;;4.90;4.13;;;13.10;99.90;;;;;;5106440;28;20472;-68
2021/05/13 11:20:32;;;;;;;5.73;4.23;;;13.10;99.90;;;;;;5107661;28;20462;-68
2021/05/13 11:23:00;;;;;;;4.97;4.50;;;13.10;99.90;;;;;;5106553;28;20449;-68
2021/05/13 11:25:35;;;;;;;7.73;5.73;;;13.10;99.90;;;;;;5107595;28;20464;-68
2021/05/13 11:28:20;;;;;;;5.67;5.13;;;13.10;99.90;;;;;;5096902;28;20491;-68
2021/05/13 11:30:47;;;;;;;7.47;4.90;;;13.00;99.90;;;;;;5096191;28;20492;-68
2021/05/13 11:33:14;;;;;;;5.50;4.60;;;12.90;99.90;;;;;;5095595;28;20467;-68
2021/05/13 11:35:40;;;;;;;5.43;4.93;;;12.80;99.90;;;;;;5095861;28;20453;-66
2021/05/13 11:38:23;;;;;;;7.00;5.10;;;12.70;99.90;;;;;;5095882;28;20485;-67
2021/05/13 11:40:51;;;;;;;6.33;5.50;;;12.70;99.90;;;;;;5095837;28;20504;-68
2021/05/13 11:43:24;;;;;;;4.97;4.47;;;12.60;99.90;;;;;;5096271;28;20468;-69
2021/05/13 11:45:52;;;;;;;5.90;5.20;;;12.60;99.90;;;;;;5096038;28;20441;-68
2021/05/13 11:48:24;;;;;;;6.30;5.60;;;12.60;99.90;;;;;;5095729;28;20517;-67
2021/05/13 11:51:17;;;;;;;6.40;5.07;;;12.50;99.90;;;;;;5095850;28;20939;-68
2021/05/13 11:53:45;;;;;;;6.53;5.10;;;12.50;99.90;;;;;;5096156;28;20456;-69
2021/05/13 11:56:13;;;;;;;7.27;5.80;;;12.50;99.90;;;;;;5096597;28;20464;-67
2021/05/13 11:58:43;;;;;;;8.63;6.07;;;12.50;99.90;;;;;;5096343;28;20976;-66
2021/05/13 12:01:24;;;;;;;10.10;7.47;;;12.50;99.90;;;;;;5097321;28;20453;-66
2021/05/13 12:03:57;;;;;;;9.77;6.20;;;12.50;99.90;;;;;;5097044;28;20441;-67
2021/05/13 12:06:49;;;;;;;6.63;5.57;;;12.50;99.90;;;;;;5097290;28;20433;-68
2021/05/13 12:12:36;;;;;;;7.30;5.30;;;12.60;99.90;;;;;;4976334;28;20446;-68
2021/05/13 12:15:45;;;;;;;7.13;5.50;;;12.50;99.90;;;;;;5091015;28;20472;-69
2021/05/13 12:18:11;;;;;;;6.90;5.37;;;12.50;99.90;;;;;;5097395;28;20487;-67
2021/05/13 12:20:42;;;;;;;6.03;5.17;;;12.50;99.90;;;;;;5097152;28;20458;-67
2021/05/13 12:23:08;;;;;;;6.73;5.40;;;12.40;99.90;;;;;;5097044;28;20441;-67
2021/05/13 12:25:36;;;;;;;7.20;5.53;;;12.50;99.90;;;;;;5096013;28;20453;-66
2021/05/13 12:28:03;;;;;;;6.57;5.33;;;12.50;99.90;;;;;;5096526;28;20477;-68
2021/05/13 12:30:30;;;;;;;7.97;5.50;;;12.40;99.90;;;;;;5095987;28;20467;-68
2021/05/13 12:32:56;;;;;;;6.10;5.37;;;12.40;99.90;;;;;;5095623;28;20445;-68
2021/05/13 12:35:24;;;;;;;6.00;4.87;;;12.40;99.90;;;;;;5095950;28;20792;-68
2021/05/13 12:37:51;;;;;;;6.07;5.00;;;12.50;99.90;;;;;;5095312;28;20500;-68
2021/05/13 12:40:18;;;;;;;6.60;5.43;;;12.50;99.90;;;;;;5096454;28;20464;-67
2021/05/13 12:42:44;;;;;;;6.13;4.70;;;12.50;99.90;;;;;;5096176;28;20515;-67
2021/05/13 12:45:17;;;;;;;6.07;4.57;;;12.50;99.90;;;;;;5095757;28;20468;-67
2021/05/13 12:47:54;;;;;;;5.57;5.07;;;12.50;99.90;;;;;;5095270;28;20438;-67
2021/05/13 12:50:24;;;;;;;5.47;4.80;;;12.60;99.90;;;;;;5094844;28;20448;-67
2021/05/13 12:52:51;;;;;;;5.07;4.60;;;12.70;99.90;;;;;;5094813;28;20572;-67
2021/05/13 12:55:18;;;;;;;5.80;4.20;;;12.70;99.90;;;;;;5094708;28;20453;-67
2021/05/13 12:57:47;;;;;;;4.57;4.17;;;12.70;99.90;;;;;;5094607;28;20487;-67
2021/05/13 13:00:15;;;;;;;4.67;4.20;;;12.70;99.90;;;;;;5094355;28;20467;-67